createdAt,value
2023-02-14T00:04:51.485Z,5.88
2023-02-14T00:15:22.305Z,5.63
2023-02-14T00:25:47.263Z,5.41
2023-02-14T00:36:12.828Z,5.39
2023-02-14T00:46:37.213Z,5.47
2023-02-14T00:57:01.418Z,5.46
2023-02-14T01:07:26.355Z,5.46
2023-02-14T01:17:51.187Z,5.51
2023-02-14T01:28:15.946Z,5.62
2023-02-14T01:38:40.930Z,5.58
2023-02-14T01:49:11.599Z,5.57
2023-02-14T01:59:41.207Z,5.64
2023-02-14T02:10:08.845Z,5.73
2023-02-14T02:21:01.928Z,5.84
2023-02-14T02:31:51.675Z,5.89
2023-02-14T02:42:27.085Z,5.99
2023-02-14T02:53:03.474Z,6.22
2023-02-14T03:03:50.030Z,6.40
2023-02-14T03:14:24.940Z,6.41
2023-02-14T03:24:56.013Z,6.51
2023-02-14T03:35:25.704Z,6.48
2023-02-14T03:45:55.125Z,6.44
2023-02-14T03:56:26.716Z,6.45
2023-02-14T04:06:51.391Z,6.52
2023-02-14T04:17:36.025Z,6.50
2023-02-14T04:28:00.370Z,6.51
2023-02-14T04:38:24.733Z,6.54
2023-02-14T04:48:48.895Z,6.47
2023-02-14T04:59:13.940Z,6.42
2023-02-14T05:09:38.257Z,6.40
2023-02-14T05:20:03.408Z,6.44
2023-02-14T05:30:28.458Z,6.44
2023-02-14T05:40:52.722Z,6.44
2023-02-14T05:51:17.808Z,6.37
2023-02-14T06:01:42.636Z,6.27
2023-02-14T06:12:08.472Z,6.16
2023-02-14T06:22:32.756Z,6.11
2023-02-14T06:32:56.964Z,6.09
2023-02-14T06:43:21.721Z,6.09
2023-02-14T06:53:46.565Z,6.00
2023-02-14T07:04:11.731Z,5.98
2023-02-14T07:14:36.539Z,6.04
2023-02-14T07:25:01.422Z,6.05
2023-02-14T07:35:26.480Z,6.02
2023-02-14T07:45:51.516Z,5.91
2023-02-14T07:56:16.847Z,5.88
2023-02-14T08:06:42.362Z,5.99
2023-02-14T08:17:07.746Z,5.98
2023-02-14T08:27:31.892Z,5.79
2023-02-14T08:37:56.664Z,5.68
2023-02-14T08:48:23.065Z,5.56
2023-02-14T08:58:51.298Z,5.61
2023-02-14T09:09:17.024Z,5.74
2023-02-14T09:19:41.952Z,5.83
2023-02-14T09:30:08.929Z,5.65
2023-02-14T09:40:34.226Z,5.62
2023-02-14T09:51:03.470Z,5.78
2023-02-14T10:01:33.288Z,5.90
2023-02-14T10:12:01.244Z,5.99
2023-02-14T10:22:28.639Z,6.06
2023-02-14T10:33:03.939Z,6.01
2023-02-14T10:43:40.419Z,6.01
2023-02-14T10:54:18.860Z,6.09
2023-02-14T11:04:46.533Z,6.21
2023-02-14T11:15:20.111Z,6.23
2023-02-14T11:25:52.148Z,6.28
2023-02-14T11:36:17.526Z,6.49
2023-02-14T11:46:52.733Z,6.52
2023-02-14T11:57:26.991Z,6.46
2023-02-14T12:07:52.655Z,6.48
2023-02-14T12:18:35.110Z,6.53
2023-02-14T12:29:06.148Z,6.53
2023-02-14T12:39:38.488Z,6.64
2023-02-14T12:50:33.613Z,6.87
2023-02-14T13:01:09.280Z,6.95
2023-02-14T13:11:45.746Z,7.01
2023-02-14T13:22:16.205Z,6.89
2023-02-14T13:32:45.327Z,6.88
2023-02-14T13:43:09.563Z,6.86
2023-02-14T13:53:38.140Z,6.80
2023-02-14T14:04:05.963Z,6.82
2023-02-14T14:14:37.289Z,6.81
2023-02-14T14:25:04.741Z,6.87
2023-02-14T14:35:28.939Z,6.88
2023-02-14T14:45:55.547Z,6.87
2023-02-14T14:56:21.483Z,6.87
2023-02-14T15:06:46.640Z,6.95
2023-02-14T15:17:18.080Z,7.20
2023-02-14T15:27:42.891Z,7.21
2023-02-14T15:38:10.605Z,7.10
2023-02-14T15:48:35.867Z,7.09
2023-02-14T15:59:03.804Z,7.18
2023-02-14T16:09:31.114Z,7.36
2023-02-14T16:19:55.517Z,7.33
2023-02-14T16:30:21.598Z,7.31
2023-02-14T16:40:48.655Z,7.30
2023-02-14T16:51:15.428Z,7.29
2023-02-14T17:01:40.378Z,7.38
2023-02-14T17:12:12.697Z,7.34
2023-02-14T17:22:38.235Z,7.33
2023-02-14T17:33:03.380Z,7.19
2023-02-14T17:43:28.332Z,7.02
2023-02-14T17:53:53.240Z,7.03
2023-02-14T18:04:18.328Z,7.05
2023-02-14T18:14:43.147Z,6.94
2023-02-14T18:25:09.171Z,6.97
2023-02-14T18:35:34.172Z,6.81
2023-02-14T18:46:08.304Z,6.83
2023-02-14T18:56:35.110Z,6.80
2023-02-14T19:06:59.593Z,6.80
2023-02-14T19:17:23.927Z,6.92
2023-02-14T19:27:48.451Z,6.88
2023-02-14T19:38:12.674Z,6.76
2023-02-14T19:48:36.904Z,6.65
2023-02-14T19:59:07.065Z,6.64
2023-02-14T20:09:31.398Z,6.66
2023-02-14T20:19:55.904Z,6.67
2023-02-14T20:30:21.873Z,6.70
2023-02-14T20:40:46.104Z,6.76
2023-02-14T20:51:12.306Z,6.75
2023-02-14T21:01:36.954Z,6.51
2023-02-14T21:12:02.255Z,6.46
2023-02-14T21:22:26.548Z,6.52
2023-02-14T21:32:50.974Z,6.59
2023-02-14T21:43:15.272Z,6.50
2023-02-14T21:53:39.871Z,6.43
2023-02-14T22:04:07.179Z,6.42
2023-02-14T22:14:31.589Z,6.54
2023-02-14T22:24:55.743Z,6.48
2023-02-14T22:35:20.125Z,6.37
2023-02-14T22:45:44.327Z,6.33
2023-02-14T22:56:14.299Z,6.43
2023-02-14T23:06:39.047Z,6.42
2023-02-14T23:17:22.703Z,6.36
2023-02-14T23:27:47.212Z,6.26
2023-02-14T23:38:11.400Z,6.30
2023-02-14T23:48:36.260Z,6.29
2023-02-14T23:59:01.055Z,6.19
